CheckWX is a tool to help pilots better visualize weather data.  It is not intended as a substitute for an official pre-flight weather briefing.

09:59:42 UTC

KJYO METAR
Leesburg Executive Airport
Leesburg, Virginia, USA
Current

25 mins ago

KJYO 190935Z AUTO 00000KT 10SM SCT095 20/20 A3000 RMK AO2
Observed
Aug-19 @ 09:35 UTC
Visibility
10 SM
Flight Rules
VFR
Cloud Levels
  • Scattered at 9,500' AGL
Temperature
20°C / 68°F
Dewpoint
20°C / 68°F
Humidity
100%
Altimeter
30" Hg
Pressure
1015.92 hPa
Previous

45 mins ago

KJYO 190915Z AUTO 00000KT 10SM CLR 20/20 A3000 RMK AO2
Observed
Aug-19 @ 09:15 UTC
Visibility
10 SM
Flight Rules
VFR
Cloud Levels
  • Clear skies
Temperature
20°C / 68°F
Dewpoint
20°C / 68°F
Humidity
100%
Altimeter
30" Hg
Pressure
1015.92 hPa
Previous

1 hour ago

KJYO 190855Z AUTO 00000KT 10SM CLR 21/20 A3000 RMK AO2
Observed
Aug-19 @ 08:55 UTC
Visibility
10 SM
Flight Rules
VFR
Cloud Levels
  • Clear skies
Temperature
21°C / 70°F
Dewpoint
20°C / 68°F
Humidity
94%
Altimeter
30" Hg
Pressure
1015.92 hPa